Time;durP1;ratioP1;P1;durP2;ratioP2;P2;SDS_P1;SDS_P2;PMS_P1;PMS_P2;Temp;Humidity;BMP_temperature;BMP_pressure;BME280_temperature;BME280_humidity;BME280_pressure;Samples;Min_cycle;Max_cycle;Signal;HPM_P1;HPM_P2
2022/01/26 00:07:32;;;;;;;;;;;;;;;1.52;98.18;101582.16;5103356;28;19919;-67
2022/01/26 00:09:58;;;;;;;;;;;;;;;1.53;98.91;101589.16;5102680;28;19911;-67
2022/01/26 00:12:23;;;;;;;;;;;;;;;1.53;98.90;101582.09;5103717;28;19919;-70
2022/01/26 00:14:48;;;;;;;;;;;;;;;1.58;99.34;101600.47;5102863;28;19964;-70
2022/01/26 00:17:14;;;;;;;;;;;;;;;1.56;99.01;101595.22;5102127;28;19911;-70
2022/01/26 00:19:53;;;;;;;;;;;;;;;1.54;98.33;101594.41;5100069;28;20076;-69
2022/01/26 00:22:44;;;;;;;;;;;;;;;1.54;98.44;101585.59;5087789;28;19942;-69
2022/01/26 00:28:09;;;;;;;;;;;;;;;1.56;98.48;101592.59;5103732;28;20040;-70
2022/01/26 00:31:59;;;;;;;;;;;;;;;1.59;98.21;101595.13;5104923;28;19922;-68
2022/01/26 00:39:06;;;;;;;;;;;;;;;1.55;98.17;101590.00;5102444;28;19926;-68
2022/01/26 00:41:37;;;;;;;;;;;;;;;1.56;97.79;101595.22;5102972;28;19916;-68
2022/01/26 00:44:04;;;;;;;;;;;;;;;1.56;98.16;101600.50;5094417;27;20000;-68
2022/01/26 00:46:29;;;;;;;;;;;;;;;1.55;98.30;101590.81;5099003;28;19923;-67
2022/01/26 00:48:55;;;;;;;;;;;;;;;1.56;98.18;101584.66;5104686;28;20276;-67
2022/01/26 00:51:22;;;;;;;;;;;;;;;1.59;98.00;101595.13;5085226;28;19923;-68
2022/01/26 00:53:54;;;;;;;;;;;;;;;1.56;98.47;101591.72;5071377;28;20330;-68
2022/01/26 00:56:20;;;;;;;;;;;;;;;1.55;98.40;101595.28;5060173;28;20643;-66
2022/01/26 00:58:46;;;;;;;;;;;;;;;1.53;98.26;101594.44;5075881;28;19911;-67
2022/01/26 01:01:11;;;;;;;;;;;;;;;1.54;98.14;101591.75;5058550;28;19916;-68
2022/01/26 01:03:41;;;;;;;;;;;;;;;1.53;97.96;101581.22;5062778;28;19926;-68
2022/01/26 01:06:31;;;;;;;;;;;;;;;1.56;98.60;101584.66;5068362;28;20382;-66
2022/01/26 01:08:54;;;;;;;;;;;;;;;1.52;97.98;101582.16;5071363;28;19956;-66
2022/01/26 01:11:20;;;;;;;;;;;;;;;1.52;98.16;101585.63;5070749;28;19916;-66
2022/01/26 01:13:45;;;;;;;;;;;;;;;1.50;98.11;101590.13;5070564;28;19919;-66
2022/01/26 01:16:13;;;;;;;;;;;;;;;1.52;98.49;101593.56;5070871;28;20905;-67
2022/01/26 01:31:28;;;;;;;;;;;;;;;1.53;98.63;101590.03;5068466;28;20030;-67
2022/01/26 01:33:54;;;;;;;;;;;;;;;1.54;98.28;101590.88;5067818;28;20549;-67
2022/01/26 01:36:21;;;;;;;;;;;;;;;1.57;99.03;101591.66;5072784;28;19919;-68
2022/01/26 01:38:47;;;;;;;;;;;;;;;1.56;99.00;101587.28;5074926;28;19939;-66
2022/01/26 01:41:12;;;;;;;;;;;;;;;1.58;99.17;101590.75;5063808;28;19916;-69
2022/01/26 01:43:37;;;;;;;;;;;;;;;1.58;99.08;101587.25;5072501;28;19919;-69
2022/01/26 01:46:03;;;;;;;;;;;;;;;1.60;99.25;101590.69;5063087;28;19916;-69
2022/01/26 01:48:31;;;;;;;;;;;;;;;1.62;98.90;101591.53;5063585;28;20371;-67
2022/01/26 01:50:58;;;;;;;;;;;;;;;1.59;98.93;101589.84;5063461;28;19951;-67
2022/01/26 01:53:44;;;;;;;;;;;;;;;1.62;99.05;101589.72;5105938;28;20405;-67
2022/01/26 01:56:10;;;;;;;;;;;;;;;1.63;99.55;101586.19;5096177;28;19912;-67
2022/01/26 01:58:36;;;;;;;;;;;;;;;1.63;99.35;101590.59;5097210;28;19965;-67
2022/01/26 02:01:02;;;;;;;;;;;;;;;1.64;99.66;101595.84;5083011;28;19959;-67
2022/01/26 02:03:27;;;;;;;;;;;;;;;1.63;99.65;101599.41;5096752;28;20002;-67
2022/01/26 02:05:53;;;;;;;;;;;;;;;1.63;99.51;101594.13;5095985;28;20435;-67
2022/01/26 02:08:18;;;;;;;;;;;;;;;1.62;99.54;101581.78;5099880;28;20308;-67
2022/01/26 02:10:44;;;;;;;;;;;;;;;1.62;99.19;101586.25;5086619;28;19919;-67
2022/01/26 02:13:37;;;;;;;;;;;;;;;1.64;99.14;101593.19;5096016;28;19915;-67
2022/01/26 02:59:26;;;;;;;;;;;;;;;1.69;100.00;101571.91;5108313;28;19919;-70
2022/01/26 03:01:58;;;;;;;;;;;;;;;1.72;100.00;101582.38;5100524;28;19923;-70
2022/01/26 03:04:46;;;;;;;;;;;;;;;1.69;100.00;101591.28;5098599;28;19911;-69
2022/01/26 03:07:19;;;;;;;;;;;;;;;1.71;100.00;101586.78;5096663;28;19912;-70
2022/01/26 03:09:50;;;;;;;;;;;;;;;1.72;100.00;101575.34;5104449;28;20036;-70
2022/01/26 03:12:26;;;;;;;;;;;;;;;1.75;100.00;101584.94;5103534;28;19919;-69
2022/01/26 03:14:56;;;;;;;;;;;;;;;1.74;100.00;101583.22;5098721;28;19912;-69
2022/01/26 03:17:44;;;;;;;;;;;;;;;1.72;100.00;101585.91;5104029;28;20283;-69
2022/01/26 03:20:11;;;;;;;;;;;;;;;1.74;100.00;101581.41;5099327;28;19950;-68
2022/01/26 03:28:20;;;;;;;;;;;;;;;1.77;100.00;101580.44;5100600;28;19938;-69
2022/01/26 03:33:24;;;;;;;;;;;;;;;1.80;100.00;101575.06;5104078;28;19911;-70
2022/01/26 03:35:53;;;;;;;;;;;;;;;1.82;100.00;101573.25;5087352;28;20807;-70
2022/01/26 03:38:44;;;;;;;;;;;;;;;1.82;100.00;101573.25;5099243;28;19920;-70
2022/01/26 03:43:53;;;;;;;;;;;;;;;1.82;100.00;101578.53;5098185;28;19918;-70
2022/01/26 03:46:19;;;;;;;;;;;;;;;1.82;100.00;101582.06;5090861;28;19912;-70
2022/01/26 03:48:44;;;;;;;;;;;;;;;1.82;100.00;101587.34;5102428;28;19912;-70
2022/01/26 03:51:09;;;;;;;;;;;;;;;1.81;100.00;101585.59;5060797;28;1207578;-68
2022/01/26 03:53:34;;;;;;;;;;;;;;;1.80;100.00;101577.69;5090937;28;19912;-69
2022/01/26 03:56:00;;;;;;;;;;;;;;;1.83;100.00;101589.06;5104565;28;19912;-69
2022/01/26 03:58:25;;;;;;;;;;;;;;;1.79;100.00;101575.97;5085257;28;19912;-69
2022/01/26 04:00:50;;;;;;;;;;;;;;;1.77;100.00;101576.03;5104894;28;19911;-69
2022/01/26 04:03:16;;;;;;;;;;;;;;;1.78;99.62;101580.41;5100656;28;19916;-69
2022/01/26 04:05:42;;;;;;;;;;;;;;;1.73;99.41;101569.13;5089583;28;20364;-69
2022/01/26 04:08:14;;;;;;;;;;;;;;;1.71;99.68;101573.56;5102571;28;20367;-69
2022/01/26 04:13:04;;;;;;;;;;;;;;;1.68;99.93;101571.03;5100527;28;19947;-69
2022/01/26 04:15:33;;;;;;;;;;;;;;;1.65;99.82;101571.13;5105471;28;19946;-70
2022/01/26 04:18:00;;;;;;;;;;;;;;;1.66;99.30;101572.88;5101458;28;20013;-70
2022/01/26 04:20:29;;;;;;;;;;;;;;;1.64;99.34;101571.16;5088845;28;19919;-70
2022/01/26 04:23:19;;;;;;;;;;;;;;;1.65;99.84;101579.06;5100110;28;19919;-70
2022/01/26 04:25:44;;;;;;;;;;;;;;;1.60;99.52;101566.91;5102979;28;19973;-70
2022/01/26 04:28:16;;;;;;;;;;;;;;;1.59;99.31;101568.69;5096650;28;19947;-70
2022/01/26 04:30:41;;;;;;;;;;;;;;;1.57;99.60;101561.69;5092359;28;20677;-70
2022/01/26 04:33:07;;;;;;;;;;;;;;;1.59;99.98;101568.69;5089470;28;20006;-70
2022/01/26 04:35:33;;;;;;;;;;;;;;;1.56;99.33;101547.66;5103335;28;19916;-69
2022/01/26 04:38:21;;;;;;;;;;;;;;;1.55;99.55;101550.34;5101138;28;19912;-69
2022/01/26 04:43:47;;;;;;;;;;;;;;;1.54;100.00;101553.88;5073655;28;19961;-70
2022/01/26 04:46:12;;;;;;;;;;;;;;;1.52;99.43;101561.84;5101388;28;19952;-69
2022/01/26 04:48:38;;;;;;;;;;;;;;;1.55;99.92;101559.09;5101940;28;19948;-69
2022/01/26 04:51:03;;;;;;;;;;;;;;;1.51;99.64;101553.97;5101850;28;20297;-69
2022/01/26 04:53:28;;;;;;;;;;;;;;;1.51;99.99;101546.03;5100441;28;19911;-69
2022/01/26 04:55:54;;;;;;;;;;;;;;;1.51;99.97;101549.56;5107547;28;19919;-69
2022/01/26 04:58:19;;;;;;;;;;;;;;;1.50;99.56;101537.25;5106674;28;19915;-69
2022/01/26 05:00:44;;;;;;;;;;;;;;;1.52;99.41;101543.34;5090838;28;19915;-69
2022/01/26 05:03:10;;;;;;;;;;;;;;;1.50;99.59;101541.66;5099445;28;19915;-70
2022/01/26 05:05:35;;;;;;;;;;;;;;;1.51;99.74;101554.84;5093366;28;19958;-70
2022/01/26 05:08:00;;;;;;;;;;;;;;;1.50;99.36;101553.13;5097686;28;19916;-69
2022/01/26 05:10:26;;;;;;;;;;;;;;;1.50;99.55;101552.25;5093424;28;19918;-70
2022/01/26 05:12:51;;;;;;;;;;;;;;;1.49;99.09;101548.72;5103443;27;19920;-70
2022/01/26 05:15:21;;;;;;;;;;;;;;;1.49;99.86;101558.44;5106057;28;19998;-70
2022/01/26 05:17:46;;;;;;;;;;;;;;;1.50;99.73;101553.13;5097496;28;19912;-70
2022/01/26 05:20:12;;;;;;;;;;;;;;;1.50;99.38;101560.16;5100174;28;20303;-70
2022/01/26 05:22:39;;;;;;;;;;;;;;;1.52;99.88;101561.84;5101554;28;19922;-70
2022/01/26 05:25:05;;;;;;;;;;;;;;;1.53;99.69;101563.59;5088575;28;19969;-70
2022/01/26 05:27:30;;;;;;;;;;;;;;;1.54;100.00;101554.75;5089343;28;19959;-70
2022/01/26 05:29:55;;;;;;;;;;;;;;;1.51;99.66;101554.84;5096750;28;19912;-70
2022/01/26 05:32:21;;;;;;;;;;;;;;;1.52;99.95;101556.56;5100150;28;19941;-70
2022/01/26 05:34:46;;;;;;;;;;;;;;;1.53;99.73;101553.03;5102150;28;19958;-69
2022/01/26 05:37:11;;;;;;;;;;;;;;;1.49;99.79;101543.44;5104809;28;19934;-69
2022/01/26 05:39:38;;;;;;;;;;;;;;;1.50;100.00;101544.31;5105185;28;19934;-69
2022/01/26 05:42:05;;;;;;;;;;;;;;;1.50;99.55;101550.47;5100324;28;20393;-70
2022/01/26 05:44:30;;;;;;;;;;;;;;;1.48;100.00;101544.34;5099079;28;20981;-68
2022/01/26 05:46:55;;;;;;;;;;;;;;;1.46;99.81;101548.84;5093086;28;19993;-69
2022/01/26 05:49:21;;;;;;;;;;;;;;;1.48;100.00;101547.00;5103163;28;19916;-69
2022/01/26 05:51:46;;;;;;;;;;;;;;;1.48;100.00;101557.56;5100297;28;19927;-69
2022/01/26 05:54:13;;;;;;;;;;;;;;;1.46;100.00;101538.28;5089500;28;20429;-69
2022/01/26 05:56:39;;;;;;;;;;;;;;;1.49;100.00;101551.38;5092466;28;19911;-70
2022/01/26 05:59:04;;;;;;;;;;;;;;;1.48;100.00;101554.09;5097164;28;19919;-70
2022/01/26 06:01:30;;;;;;;;;;;;;;;1.46;100.00;101546.19;5088916;28;19915;-70
2022/01/26 06:03:55;;;;;;;;;;;;;;;1.50;100.00;101560.16;5096200;28;20283;-70
2022/01/26 06:06:21;;;;;;;;;;;;;;;1.49;100.00;101558.44;5088695;28;19911;-70
2022/01/26 06:08:46;;;;;;;;;;;;;;;1.48;100.00;101560.22;5087430;28;20006;-70
2022/01/26 06:11:12;;;;;;;;;;;;;;;1.47;100.00;101566.44;5100572;28;19922;-70
2022/01/26 06:13:37;;;;;;;;;;;;;;;1.47;100.00;101561.13;5094805;28;19943;-71
2022/01/26 06:16:02;;;;;;;;;;;;;;;1.45;100.00;101570.03;5098722;27;19919;-71
2022/01/26 06:18:28;;;;;;;;;;;;;;;1.45;100.00;101570.88;5085614;28;19911;-69
2022/01/26 06:20:53;;;;;;;;;;;;;;;1.48;100.00;101576.06;5099387;27;19980;-69
2022/01/26 06:23:19;;;;;;;;;;;;;;;1.45;100.00;101565.59;5101416;28;19955;-70
2022/01/26 06:25:45;;;;;;;;;;;;;;;1.47;100.00;101568.19;5089307;28;19915;-70
2022/01/26 06:28:13;;;;;;;;;;;;;;;1.47;100.00;101569.06;5085762;28;19918;-70
2022/01/26 06:30:39;;;;;;;;;;;;;;;1.46;100.00;101563.84;5097981;28;20847;-68
2022/01/26 06:33:04;;;;;;;;;;;;;;;1.44;100.00;101553.31;5102784;28;19943;-69
2022/01/26 06:35:31;;;;;;;;;;;;;;;1.47;100.00;101562.91;5098845;28;20430;-69
2022/01/26 06:37:56;;;;;;;;;;;;;;;1.49;100.00;101571.66;5076744;28;19912;-69
2022/01/26 06:40:23;;;;;;;;;;;;;;;1.50;100.00;101568.09;5097377;28;19965;-69
2022/01/26 06:45:19;;;;;;;;;;;;;;;1.51;100.00;101575.97;5101983;28;19998;-69
2022/01/26 06:50:28;;;;;;;;;;;;;;;1.54;100.00;101567.97;5090816;28;19918;-68
2022/01/26 06:52:54;;;;;;;;;;;;;;;1.54;100.00;101567.97;5096274;28;19915;-69
2022/01/26 06:55:20;;;;;;;;;;;;;;;1.56;100.00;101573.19;5096875;28;19916;-69
2022/01/26 06:57:45;;;;;;;;;;;;;;;1.59;100.00;101575.75;5098433;28;19918;-68
2022/01/26 07:00:12;;;;;;;;;;;;;;;1.62;100.00;101567.72;5096019;28;19955;-69
2022/01/26 07:02:39;;;;;;;;;;;;;;;1.62;100.00;101568.56;5085584;28;19924;-69
2022/01/26 07:05:04;;;;;;;;;;;;;;;1.67;100.00;101565.78;5094352;28;19916;-67
2022/01/26 07:07:29;;;;;;;;;;;;;;;1.67;100.00;101568.44;5090167;28;19919;-67
2022/01/26 07:09:55;;;;;;;;;;;;;;;1.68;100.00;101573.66;5101800;28;19915;-67
2022/01/26 07:12:20;;;;;;;;;;;;;;;1.70;100.00;101574.50;5100799;28;19912;-67
2022/01/26 07:22:39;;;;;;;;;;;;;;;1.81;100.00;101569.72;5096688;28;19920;-68
2022/01/26 07:25:05;;;;;;;;;;;;;;;1.81;100.00;101575.00;5096824;28;20383;-68
2022/01/26 07:27:30;;;;;;;;;;;;;;;1.84;100.00;101574.06;5103902;27;20001;-68
2022/01/26 07:29:56;;;;;;;;;;;;;;;1.91;100.00;101573.78;5103357;28;19919;-68
2022/01/26 07:32:24;;;;;;;;;;;;;;;1.90;100.00;101569.44;5102825;28;19911;-68
2022/01/26 07:34:49;;;;;;;;;;;;;;;1.96;100.00;101571.88;5102945;28;19915;-68
2022/01/26 07:37:16;;;;;;;;;;;;;;;1.95;100.00;101578.09;5098674;28;19922;-69
2022/01/26 07:39:45;;;;;;;;;;;;;;;1.98;100.00;101580.66;5105757;27;19913;-67
2022/01/26 07:42:10;;;;;;;;;;;;;;;2.03;100.00;101584.00;5101405;28;19995;-70
2022/01/26 07:44:36;;;;;;;;;;;;;;;2.04;100.00;101575.13;5100148;28;19915;-70
2022/01/26 07:47:01;;;;;;;;;;;;;;;2.08;100.00;101575.91;5105676;28;19918;-70
2022/01/26 07:49:26;;;;;;;;;;;;;;;2.10;100.00;101574.94;5104518;28;19911;-69
2022/01/26 07:51:52;;;;;;;;;;;;;;;2.13;100.00;101574.81;5099423;28;19920;-70
2022/01/26 07:54:18;;;;;;;;;;;;;;;2.19;100.00;101579.91;5100936;28;19920;-69
2022/01/26 07:56:45;;;;;;;;;;;;;;;2.22;100.00;101574.53;5102496;28;19912;-70
2022/01/26 07:59:11;;;;;;;;;;;;;;;2.31;100.00;101581.28;5105654;28;19912;-70
2022/01/26 08:01:36;;;;;;;;;;;;;;;2.32;100.00;101572.41;5099693;28;20426;-66
2022/01/26 08:04:01;;;;;;;;;;;;;;;2.37;100.00;101570.50;5107508;28;19994;-66
2022/01/26 08:06:26;;;;;;;;;;;;;;;2.41;100.00;101577.41;5098710;28;20308;-66
2022/01/26 08:08:52;;;;;;;;;;;;;;;2.49;100.00;101582.44;5100261;28;19916;-66
2022/01/26 08:11:17;;;;;;;;;;;;;;;2.50;100.00;101573.56;5105818;28;19912;-66
2022/01/26 08:13:42;;;;;;;;;;;;;;;2.57;100.00;101575.94;5098745;28;19965;-67
2022/01/26 08:16:08;;;;;;;;;;;;;;;2.63;100.00;101581.03;5104682;27;19911;-66
2022/01/26 08:18:33;;;;;;;;;;;;;;;2.64;100.00;101584.56;5104456;27;20038;-67
2022/01/26 08:21:05;;;;;;;;;;;;;;;2.70;100.00;101569.31;5084792;28;19938;-67
2022/01/26 08:23:31;;;;;;;;;;;;;;;2.79;100.00;101576.06;5102880;28;20388;-67
2022/01/26 08:25:56;;;;;;;;;;;;;;;2.89;99.62;101580.09;5103373;28;19954;-68
2022/01/26 08:28:27;;;;;;;;;;;;;;;2.89;98.91;101575.66;5082472;28;19911;-67
2022/01/26 08:30:53;;;;;;;;;;;;;;;3.02;98.22;101574.31;5102630;28;19927;-67
2022/01/26 08:33:18;;;;;;;;;;;;;;;3.16;97.11;101584.41;5100377;28;19915;-67
2022/01/26 08:35:45;;;;;;;;;;;;;;;3.10;96.68;101568.72;5101079;28;19923;-68
2022/01/26 08:38:10;;;;;;;;;;;;;;;3.23;96.07;101567.34;5100207;28;19919;-68
2022/01/26 08:40:36;;;;;;;;;;;;;;;3.17;96.30;101571.09;5097614;28;19912;-68
2022/01/26 08:43:02;;;;;;;;;;;;;;;3.23;95.89;101565.56;5096414;28;20395;-67
2022/01/26 08:45:30;;;;;;;;;;;;;;;3.30;95.55;101568.81;5084150;28;20382;-68
2022/01/26 08:47:55;;;;;;;;;;;;;;;3.36;94.65;101577.44;5100068;28;19946;-67
2022/01/26 08:50:20;;;;;;;;;;;;;;;3.30;95.55;101572.34;5096580;28;19915;-67
2022/01/26 08:52:47;;;;;;;;;;;;;;;3.29;95.51;101573.25;5092158;28;20010;-68
2022/01/26 08:55:12;;;;;;;;;;;;;;;3.33;95.61;101577.53;5083807;28;19919;-67
2022/01/26 08:57:38;;;;;;;;;;;;;;;3.35;95.35;101583.63;5100908;28;19912;-67
2022/01/26 09:00:05;;;;;;;;;;;;;;;3.41;94.84;101583.41;5096756;28;19920;-67
2022/01/26 09:02:30;;;;;;;;;;;;;;;3.39;94.57;101587.03;5086390;28;19923;-67
2022/01/26 09:04:55;;;;;;;;;;;;;;;3.47;94.54;101584.94;5101259;28;19919;-68
2022/01/26 09:07:21;;;;;;;;;;;;;;;3.47;94.40;101584.94;5099584;28;19911;-68
2022/01/26 09:09:46;;;;;;;;;;;;;;;3.58;93.27;101585.41;5096106;28;19970;-66
2022/01/26 09:12:13;;;;;;;;;;;;;;;3.55;93.71;101581.06;5100484;28;20003;-67
2022/01/26 09:14:39;;;;;;;;;;;;;;;3.56;93.94;101584.59;5097887;28;19912;-67
2022/01/26 09:17:05;;;;;;;;;;;;;;;3.58;94.05;101590.72;5084724;28;19916;-69
2022/01/26 09:19:32;;;;;;;;;;;;;;;3.70;92.78;101576.94;5085834;28;20011;-70
2022/01/26 09:21:59;;;;;;;;;;;;;;;3.78;92.15;101581.03;5095860;28;19923;-70
2022/01/26 09:24:26;;;;;;;;;;;;;;;3.81;92.26;101580.06;5099257;28;20766;-71
2022/01/26 09:26:51;;;;;;;;;;;;;;;3.82;92.41;101587.97;5101859;28;20333;-69
2022/01/26 09:29:16;;;;;;;;;;;;;;;3.98;90.19;101581.09;5099966;28;20053;-70
2022/01/26 09:31:42;;;;;;;;;;;;;;;4.02;90.03;101584.47;5099661;28;19912;-70
2022/01/26 09:34:07;;;;;;;;;;;;;;;4.03;89.40;101568.50;5100025;28;19915;-70
2022/01/26 09:36:32;;;;;;;;;;;;;;;3.97;90.21;101576.69;5083013;28;20045;-70
2022/01/26 09:38:58;;;;;;;;;;;;;;;4.07;89.52;101579.88;5097336;28;19919;-71
2022/01/26 09:41:23;;;;;;;;;;;;;;;3.99;90.20;101571.34;5097861;28;19912;-69
2022/01/26 09:43:49;;;;;;;;;;;;;;;4.18;88.92;101573.19;5097050;28;19911;-69
2022/01/26 09:46:14;;;;;;;;;;;;;;;4.12;89.21;101569.91;5102929;28;19919;-70
2022/01/26 09:48:42;;;;;;;;;;;;;;;4.13;89.90;101567.19;5098626;28;20272;-70
2022/01/26 09:51:07;;;;;;;;;;;;;;;4.20;89.08;101559.84;5107828;28;19916;-71
2022/01/26 09:53:35;;;;;;;;;;;;;;;4.28;88.17;101561.25;5108180;28;20021;-71
2022/01/26 09:56:00;;;;;;;;;;;;;;;4.25;88.30;101563.16;5100246;28;19919;-71
2022/01/26 09:58:26;;;;;;;;;;;;;;;4.21;88.76;101554.47;5098846;28;19920;-67
2022/01/26 10:00:58;;;;;;;;;;;;;;;4.36;87.74;101553.81;5096340;28;19919;-70
2022/01/26 10:03:24;;;;;;;;;;;;;;;4.41;87.25;101545.63;5086488;28;19915;-71
2022/01/26 10:05:50;;;;;;;;;;;;;;;4.52;86.18;101548.72;5097347;27;20390;-71
2022/01/26 10:19:03;;;;;;;;;;;;;;;4.51;87.60;101528.38;5103245;28;19911;-69
2022/01/26 10:21:29;;;;;;;;;;;;;;;4.58;87.75;101536.00;5092683;28;20427;-71
2022/01/26 10:23:57;;;;;;;;;;;;;;;4.69;87.47;101532.88;5102029;28;20012;-71
2022/01/26 10:26:22;;;;;;;;;;;;;;;4.95;84.29;101513.97;5101931;28;19919;-70
2022/01/26 10:28:58;;;;;;;;;;;;;;;5.00;83.89;101522.59;5100102;28;19912;-71
2022/01/26 10:31:25;;;;;;;;;;;;;;;5.21;82.02;101521.59;5103538;28;19912;-71
2022/01/26 10:33:57;;;;;;;;;;;;;;;5.34;81.25;101528.06;5088567;28;19915;-67
2022/01/26 10:36:23;;;;;;;;;;;;;;;5.40;80.98;101517.16;5097488;28;19916;-67
2022/01/26 10:38:58;;;;;;;;;;;;;;;5.44;80.96;101516.06;5102775;28;20412;-66
2022/01/26 10:41:24;;;;;;;;;;;;;;;5.66;77.86;101511.44;5087115;28;19920;-67
2022/01/26 10:43:50;;;;;;;;;;;;;;;5.77;77.19;101510.91;5103839;28;19938;-67
2022/01/26 10:46:30;;;;;;;;;;;;;;;5.79;76.65;101507.22;5099034;28;19954;-71
2022/01/26 10:49:42;;;;;;;;;;;;;;;5.84;75.94;101502.56;5089230;28;19920;-71
2022/01/26 10:54:21;;;;;;;;;;;;;;;5.92;74.81;101497.75;5100379;28;20019;-70
2022/01/26 10:56:47;;;;;;;;;;;;;;;5.88;75.01;101492.63;5103124;28;20004;-69
2022/01/26 10:59:13;;;;;;;;;;;;;;;5.93;74.65;101494.13;5103205;28;19946;-68
2022/01/26 11:01:38;;;;;;;;;;;;;;;5.97;75.14;101485.03;5088294;28;19916;-67
2022/01/26 11:04:04;;;;;;;;;;;;;;;5.99;74.11;101487.63;5100711;28;19920;-68
2022/01/26 11:06:29;;;;;;;;;;;;;;;5.92;75.39;101488.88;5090208;28;20431;-68
2022/01/26 11:08:59;;;;;;;;;;;;;;;5.91;74.76;101484.50;5092416;28;19959;-68
2022/01/26 11:11:24;;;;;;;;;;;;;;;6.06;73.41;101478.41;5097493;28;19994;-68
2022/01/26 11:13:50;;;;;;;;;;;;;;;6.00;73.29;101481.38;5091171;28;20052;-70
2022/01/26 11:16:16;;;;;;;;;;;;;;;5.96;73.55;101470.00;5100128;27;19994;-67
2022/01/26 11:18:46;;;;;;;;;;;;;;;5.89;73.84;101476.59;5100412;28;19920;-68
2022/01/26 11:21:15;;;;;;;;;;;;;;;5.84;74.69;101472.44;5106112;28;19919;-67
2022/01/26 11:23:41;;;;;;;;;;;;;;;5.77;75.11;101469.16;5093089;28;19916;-71
2022/01/26 11:26:06;;;;;;;;;;;;;;;5.77;74.84;101473.66;5092383;28;20033;-71
2022/01/26 11:28:32;;;;;;;;;;;;;;;5.75;75.02;101467.53;5092662;28;20322;-70
2022/01/26 11:31:02;;;;;;;;;;;;;;;5.78;75.42;101468.25;5104035;28;19919;-71
2022/01/26 11:33:30;;;;;;;;;;;;;;;5.87;74.51;101473.13;5086561;28;19919;-70
2022/01/26 11:35:56;;;;;;;;;;;;;;;6.05;72.54;101466.00;5096959;28;20019;-70
2022/01/26 11:46:53;;;;;;;;;;;;;;;5.83;73.66;101458.25;5100157;28;19927;-69
2022/01/26 11:49:26;;;;;;;;;;;;;;;5.85;73.08;101456.38;5099284;28;20363;-67
2022/01/26 11:51:53;;;;;;;;;;;;;;;5.76;73.98;101456.81;5102720;28;19916;-68
2022/01/26 11:54:20;;;;;;;;;;;;;;;5.74;74.01;101453.34;5089049;28;19961;-68
2022/01/26 11:57:05;;;;;;;;;;;;;;;5.87;73.24;101459.81;5096182;28;20439;-68
2022/01/26 11:59:33;;;;;;;;;;;;;;;5.86;73.26;101458.09;5097493;28;20289;-68
2022/01/26 12:02:06;;;;;;;;;;;;;;;5.82;73.87;101461.88;5102256;28;20329;-68
2022/01/26 12:04:35;;;;;;;;;;;;;;;5.75;74.23;101452.44;5084821;28;19919;-68
2022/01/26 12:07:10;;;;;;;;;;;;;;;5.74;74.35;101455.16;5098028;28;19923;-69
2022/01/26 12:09:37;;;;;;;;;;;;;;;5.72;74.55;101447.25;5089004;28;19911;-72
2022/01/26 12:12:05;;;;;;;;;;;;;;;5.73;73.72;101442.78;5100971;28;19912;-72
2022/01/26 12:14:33;;;;;;;;;;;;;;;5.93;73.13;101445.34;5103498;28;19911;-72
2022/01/26 12:16:59;;;;;;;;;;;;;;;5.89;72.75;101434.00;5086270;28;20310;-72
2022/01/26 12:19:36;;;;;;;;;;;;;;;5.85;73.40;101432.44;5101734;28;19915;-71
2022/01/26 12:38:45;;;;;;;;;;;;;;;6.13;70.49;101422.06;5105770;28;19998;-71
2022/01/26 12:43:53;;;;;;;;;;;;;;;6.19;70.52;101421.75;5102277;28;20008;-70
2022/01/26 12:46:45;;;;;;;;;;;;;;;6.08;70.83;101413.47;5104903;28;20010;-70
2022/01/26 12:49:15;;;;;;;;;;;;;;;6.12;70.60;101404.38;5095995;28;19912;-70
2022/01/26 12:51:43;;;;;;;;;;;;;;;6.13;70.69;101400.75;5100383;28;20371;-71
2022/01/26 12:54:08;;;;;;;;;;;;;;;6.06;71.27;101404.69;5100621;28;19912;-67
2022/01/26 12:56:34;;;;;;;;;;;;;;;6.08;70.92;101394.81;5106519;28;19911;-67
2022/01/26 12:59:01;;;;;;;;;;;;;;;6.06;71.26;101404.69;5088392;28;19922;-67
2022/01/26 13:01:27;;;;;;;;;;;;;;;6.07;70.94;101400.22;5093462;28;19998;-67
2022/01/26 13:03:55;;;;;;;;;;;;;;;6.14;70.02;101402.50;5099455;28;19999;-67
2022/01/26 13:06:23;;;;;;;;;;;;;;;6.13;70.48;101402.56;5103358;28;20260;-72
2022/01/26 13:08:49;;;;;;;;;;;;;;;6.06;71.15;101391.38;5091371;28;19912;-71
2022/01/26 13:11:36;;;;;;;;;;;;;;;6.15;70.54;101398.88;5101292;28;19961;-71
2022/01/26 13:14:02;;;;;;;;;;;;;;;6.21;69.67;101387.03;5104273;28;19916;-71
2022/01/26 13:16:35;;;;;;;;;;;;;;;6.21;70.14;101395.91;5100433;28;19918;-71
2022/01/26 13:19:56;;;;;;;;;;;;;;;6.16;69.94;101395.28;5106921;28;19912;-72
2022/01/26 13:25:40;;;;;;;;;;;;;;;6.18;70.00;101397.84;5090800;28;19958;-71
2022/01/26 13:28:14;;;;;;;;;;;;;;;6.05;70.76;101392.31;5091235;27;19911;-71
2022/01/26 13:38:38;;;;;;;;;;;;;;;6.11;70.28;101397.34;5099864;28;19969;-72
2022/01/26 13:51:22;;;;;;;;;;;;;;;5.97;70.99;101399.81;5099470;28;20402;-71
2022/01/26 13:54:12;;;;;;;;;;;;;;;6.00;70.58;101405.00;5089181;28;20017;-71
2022/01/26 13:59:14;;;;;;;;;;;;;;;5.90;71.72;101393.09;5099066;28;19919;-72
2022/01/26 14:01:43;;;;;;;;;;;;;;;5.90;70.86;101395.75;5093375;27;19916;-71
2022/01/26 14:04:09;;;;;;;;;;;;;;;5.82;71.18;101403.31;5097429;28;20299;-72
2022/01/26 14:06:34;;;;;;;;;;;;;;;5.76;71.73;101406.22;5087512;28;19912;-72
2022/01/26 14:08:59;;;;;;;;;;;;;;;5.82;71.19;101394.44;5102558;28;20351;-72
2022/01/26 14:11:25;;;;;;;;;;;;;;;5.85;70.73;101399.63;5100829;28;19926;-71
2022/01/26 14:13:54;;;;;;;;;;;;;;;5.78;71.34;101399.03;5103902;28;19946;-71
2022/01/26 14:16:21;;;;;;;;;;;;;;;5.68;72.01;101400.41;5100133;28;19930;-71
2022/01/26 14:21:44;;;;;;;;;;;;;;;5.62;72.16;101407.88;5074342;28;19911;-70
2022/01/26 14:26:40;;;;;;;;;;;;;;;5.68;72.17;101399.59;5094135;28;20421;-66
2022/01/26 14:29:18;;;;;;;;;;;;;;;5.76;71.63;101411.56;5084214;28;19919;-66
2022/01/26 14:51:29;;;;;;;;;;;;;;;5.54;72.53;101410.91;5098190;28;20292;-67
2022/01/26 16:36:07;;;;;;;;;;;;;;;4.96;75.77;101427.97;5099503;27;19934;-67
2022/01/26 16:52:33;;;;;;;;;;;;;;;4.86;76.28;101439.97;5100902;28;19934;-70
2022/01/26 17:11:25;;;;;;;;;;;;;;;4.51;77.73;101446.91;5095302;27;19981;-70
2022/01/26 17:25:33;;;;;;;;;;;;;;;4.38;79.13;101450.16;5098888;27;20325;-71
2022/01/26 18:03:59;;;;;;;;;;;;;;;3.89;80.74;101462.06;5095846;28;19935;-71
2022/01/26 18:32:50;;;;;;;;;;;;;;;2.95;85.84;101480.06;5104160;28;19985;-71
2022/01/26 18:49:14;;;;;;;;;;;;;;;2.68;87.51;101485.53;5098689;28;20477;-67
2022/01/26 18:51:41;;;;;;;;;;;;;;;2.65;87.98;101480.34;5097643;28;20062;-70
2022/01/26 18:54:07;;;;;;;;;;;;;;;2.60;88.30;101484.94;5102796;28;19923;-71
2022/01/26 18:56:39;;;;;;;;;;;;;;;2.50;88.77;101473.84;5100334;28;19920;-72
2022/01/26 18:59:15;;;;;;;;;;;;;;;2.41;88.76;101470.66;5087697;28;19923;-73
2022/01/26 19:01:41;;;;;;;;;;;;;;;2.34;89.06;101464.72;5081267;28;19920;-70
2022/01/26 19:07:05;;;;;;;;;;;;;;;2.30;89.96;101468.41;5100380;28;20541;-66
2022/01/26 19:09:34;;;;;;;;;;;;;;;2.29;89.95;101472.81;5078056;28;19919;-66
2022/01/26 19:12:01;;;;;;;;;;;;;;;2.26;90.18;101477.38;5076551;28;19920;-67
2022/01/26 19:18:23;;;;;;;;;;;;;;;2.23;90.88;101465.09;5049923;28;19912;-68
2022/01/26 19:21:12;;;;;;;;;;;;;;;2.15;90.73;101453.94;5083601;28;19931;-71
2022/01/26 19:24:13;;;;;;;;;;;;;;;2.10;91.48;101455.00;5074996;28;19923;-68
2022/01/26 19:26:37;;;;;;;;;;;;;;;2.13;91.69;101463.69;5098124;28;19927;-72
2022/01/26 19:46:11;;;;;;;;;;;;;;;1.96;92.50;101426.38;5099463;28;19927;-70
2022/01/26 19:50:54;;;;;;;;;;;;;;;2.04;92.18;101426.97;5101659;28;19966;-70
2022/01/26 19:53:20;;;;;;;;;;;;;;;1.95;92.28;101427.31;5100454;28;19959;-72
2022/01/26 19:55:45;;;;;;;;;;;;;;;1.93;92.63;101425.63;5100389;28;19951;-70
2022/01/26 19:58:11;;;;;;;;;;;;;;;1.84;92.48;101426.81;5094657;28;19920;-70
2022/01/26 20:00:37;;;;;;;;;;;;;;;1.91;92.64;101432.75;5088474;28;19915;-70
2022/01/26 20:03:02;;;;;;;;;;;;;;;1.81;92.51;101429.56;5082264;28;19923;-70
2022/01/26 20:05:43;;;;;;;;;;;;;;;1.79;93.11;101434.06;5100672;27;20000;-71